createdAt,value
2023-03-20T00:02:04.294Z,3.63
2023-03-20T00:04:31.036Z,3.60
2023-03-20T00:06:57.715Z,3.30
2023-03-20T00:09:25.808Z,3.38
2023-03-20T00:11:54.128Z,3.42
2023-03-20T00:14:22.634Z,3.50
2023-03-20T00:16:49.621Z,3.15
2023-03-20T00:19:18.818Z,3.38
2023-03-20T00:21:47.559Z,3.20
2023-03-20T00:24:15.489Z,3.67
2023-03-20T00:26:43.381Z,3.33
2023-03-20T00:29:20.678Z,3.58
2023-03-20T00:31:47.685Z,3.28
2023-03-20T00:34:17.405Z,3.40
2023-03-20T00:36:46.209Z,3.55
2023-03-20T00:39:12.787Z,3.80
2023-03-20T00:41:39.268Z,3.67
2023-03-20T00:44:26.417Z,4.20
2023-03-20T00:46:59.243Z,3.20
2023-03-20T00:49:30.032Z,3.72
2023-03-20T00:51:57.032Z,3.85
2023-03-20T00:54:24.762Z,4.00
2023-03-20T00:57:00.147Z,3.72
2023-03-20T00:59:31.347Z,4.10
2023-03-20T01:01:59.225Z,3.20
2023-03-20T01:04:30.679Z,3.47
2023-03-20T01:06:57.247Z,3.50
2023-03-20T01:09:23.837Z,3.63
2023-03-20T01:11:51.103Z,3.17
2023-03-20T01:14:18.496Z,3.65
2023-03-20T01:16:45.110Z,3.40
2023-03-20T01:19:15.464Z,3.75
2023-03-20T01:21:42.537Z,3.10
2023-03-20T01:24:09.164Z,3.33
2023-03-20T01:26:44.385Z,3.15
2023-03-20T01:29:17.968Z,3.75
2023-03-20T01:31:44.944Z,3.35
2023-03-20T01:34:11.982Z,3.58
2023-03-20T01:36:39.371Z,3.40
2023-03-20T01:39:06.258Z,3.38
2023-03-20T01:41:32.990Z,3.70
2023-03-20T01:44:01.930Z,3.72
2023-03-20T01:46:32.021Z,3.40
2023-03-20T01:49:19.608Z,3.47
2023-03-20T01:51:49.072Z,3.42
2023-03-20T01:54:18.362Z,3.53
2023-03-20T01:57:06.961Z,3.35
2023-03-20T01:59:50.524Z,3.15
2023-03-20T02:02:21.666Z,3.60
2023-03-20T02:04:52.559Z,3.25
2023-03-20T02:07:20.499Z,3.67
2023-03-20T02:09:59.553Z,4.25
2023-03-20T02:12:38.222Z,3.65
2023-03-20T02:15:07.552Z,3.45
2023-03-20T02:18:12.138Z,3.55
2023-03-20T02:20:45.628Z,2.78
2023-03-20T02:23:36.436Z,3.83
2023-03-20T02:26:18.984Z,3.03
2023-03-20T02:28:52.845Z,3.50
2023-03-20T02:31:50.952Z,4.10
2023-03-20T02:34:39.965Z,3.63
2023-03-20T02:37:36.902Z,3.47
2023-03-20T02:40:11.485Z,3.75
2023-03-20T02:42:55.652Z,3.78
2023-03-20T02:45:34.612Z,4.00
2023-03-20T02:48:36.613Z,3.90
2023-03-20T02:51:15.838Z,3.67
2023-03-20T02:53:55.428Z,3.85
2023-03-20T02:56:49.381Z,4.13
2023-03-20T02:59:27.517Z,4.05
2023-03-20T03:01:58.321Z,4.32
2023-03-20T03:04:28.543Z,4.25
2023-03-20T03:06:56.401Z,3.75
2023-03-20T03:09:26.171Z,3.55
2023-03-20T03:12:10.676Z,3.53
2023-03-20T03:14:38.140Z,4.13
2023-03-20T03:17:10.222Z,3.97
2023-03-20T03:19:38.317Z,3.92
2023-03-20T03:22:05.741Z,4.05
2023-03-20T03:24:41.295Z,3.45
2023-03-20T03:27:22.530Z,3.83
2023-03-20T03:29:54.277Z,3.72
2023-03-20T03:33:01.792Z,4.72
2023-03-20T03:35:28.433Z,3.80
2023-03-20T03:38:02.475Z,3.75
2023-03-20T03:40:45.126Z,3.38
2023-03-20T03:43:27.679Z,4.03
2023-03-20T03:46:17.339Z,3.67
2023-03-20T03:48:49.535Z,3.80
2023-03-20T03:51:22.603Z,4.22
2023-03-20T03:54:09.365Z,3.88
2023-03-20T03:56:38.012Z,4.10
2023-03-20T03:59:27.759Z,4.38
2023-03-20T04:01:54.918Z,4.50
2023-03-20T04:04:22.369Z,4.30
2023-03-20T04:06:49.123Z,3.97
2023-03-20T04:09:15.710Z,4.65
2023-03-20T04:11:43.450Z,4.30
2023-03-20T04:14:10.033Z,4.60
2023-03-20T04:16:36.711Z,5.00
2023-03-20T04:19:04.075Z,5.35
2023-03-20T04:21:30.925Z,5.47
2023-03-20T04:23:57.516Z,5.50
2023-03-20T04:26:24.385Z,6.10
2023-03-20T04:28:51.700Z,5.63
2023-03-20T04:31:37.227Z,6.45
2023-03-20T04:34:18.105Z,6.78
2023-03-20T04:36:57.015Z,7.15
2023-03-20T04:39:31.740Z,7.07
2023-03-20T04:41:58.308Z,7.93
2023-03-20T04:44:24.917Z,7.80
2023-03-20T04:46:51.736Z,8.30
2023-03-20T04:49:19.831Z,7.72
2023-03-20T04:51:47.569Z,7.93
2023-03-20T04:54:16.890Z,8.07
2023-03-20T04:56:43.585Z,8.38
2023-03-20T04:59:16.626Z,7.63
2023-03-20T05:01:43.284Z,7.70
2023-03-20T05:04:09.987Z,7.05
2023-03-20T05:06:37.019Z,8.32
2023-03-20T05:09:04.151Z,8.52
2023-03-20T05:11:32.183Z,9.40
2023-03-20T05:14:05.185Z,9.52
2023-03-20T05:17:01.371Z,9.73
2023-03-20T05:19:38.954Z,9.93
2023-03-20T05:22:18.297Z,8.98
2023-03-20T05:24:53.989Z,10.38
2023-03-20T05:27:44.713Z,10.18
2023-03-20T05:30:46.656Z,9.00
2023-03-20T05:33:28.989Z,10.18
2023-03-20T05:36:14.293Z,10.45
2023-03-20T05:39:03.988Z,11.07
2023-03-20T05:41:30.531Z,10.65
2023-03-20T05:44:31.552Z,10.50
2023-03-20T05:47:20.968Z,11.00
2023-03-20T05:50:00.542Z,10.32
2023-03-20T05:52:36.405Z,10.98
2023-03-20T05:55:21.613Z,10.65
2023-03-20T05:58:02.515Z,11.90
2023-03-20T06:00:59.590Z,11.52
2023-03-20T06:03:52.472Z,11.77
2023-03-20T06:06:38.568Z,11.45
2023-03-20T06:09:05.704Z,11.73
2023-03-20T06:11:33.595Z,11.75
2023-03-20T06:14:01.590Z,12.25
2023-03-20T06:16:36.698Z,12.02
2023-03-20T06:19:04.201Z,12.63
2023-03-20T06:21:31.110Z,12.65
2023-03-20T06:23:59.659Z,13.23
2023-03-20T06:26:26.308Z,15.13
2023-03-20T06:29:04.440Z,14.55
2023-03-20T06:31:32.682Z,15.07
2023-03-20T06:34:00.892Z,14.80
2023-03-20T06:36:27.974Z,15.27
2023-03-20T06:39:02.227Z,16.65
2023-03-20T06:41:34.655Z,17.00
2023-03-20T06:44:05.592Z,17.88
2023-03-20T06:46:52.218Z,20.88
2023-03-20T06:49:19.377Z,20.55
2023-03-20T06:51:47.950Z,20.90
2023-03-20T06:54:22.194Z,22.08
2023-03-20T06:56:48.815Z,21.08
2023-03-20T06:59:15.515Z,22.17
2023-03-20T07:01:42.487Z,23.50
2023-03-20T07:04:09.134Z,22.73
2023-03-20T07:06:42.709Z,21.83
2023-03-20T07:09:10.218Z,22.38
2023-03-20T07:11:36.795Z,20.70
2023-03-20T07:14:03.690Z,21.83
2023-03-20T07:16:48.761Z,20.75
2023-03-20T07:19:16.093Z,21.25
2023-03-20T07:21:45.175Z,21.35
2023-03-20T07:24:14.171Z,21.15
2023-03-20T07:26:41.321Z,20.83
2023-03-20T07:29:08.295Z,18.30
2023-03-20T07:31:35.090Z,19.33
2023-03-20T07:34:12.521Z,18.17
2023-03-20T07:36:42.054Z,19.95
2023-03-20T07:39:09.950Z,21.02
2023-03-20T07:41:38.600Z,20.73
2023-03-20T07:44:10.498Z,20.52
2023-03-20T07:47:03.261Z,19.80
2023-03-20T07:49:30.399Z,19.63
2023-03-20T07:51:57.130Z,19.77
2023-03-20T07:54:23.860Z,19.42
2023-03-20T07:56:51.034Z,19.83
2023-03-20T07:59:17.987Z,18.77
2023-03-20T08:01:44.903Z,20.55
2023-03-20T08:04:11.617Z,20.85
2023-03-20T08:06:41.651Z,19.38
2023-03-20T08:09:08.450Z,18.88
2023-03-20T08:11:35.264Z,20.60
2023-03-20T08:14:01.849Z,18.45
2023-03-20T08:16:28.754Z,19.70
2023-03-20T08:19:01.149Z,19.02
2023-03-20T08:21:28.676Z,19.42
2023-03-20T08:23:55.998Z,18.20
2023-03-20T08:26:22.920Z,17.95
2023-03-20T08:28:50.481Z,19.23
2023-03-20T08:31:18.047Z,17.88
2023-03-20T08:33:45.859Z,18.08
2023-03-20T08:36:15.173Z,17.73
2023-03-20T08:38:42.278Z,16.50
2023-03-20T08:41:08.945Z,17.58
2023-03-20T08:43:36.439Z,16.75
2023-03-20T08:46:03.858Z,16.50
2023-03-20T08:48:30.578Z,15.57
2023-03-20T08:50:57.250Z,15.00
2023-03-20T08:53:23.908Z,14.77
2023-03-20T08:55:51.234Z,15.15
2023-03-20T08:58:18.479Z,13.65
2023-03-20T09:00:45.519Z,13.95
2023-03-20T09:03:14.859Z,14.02
2023-03-20T09:05:43.473Z,14.90
2023-03-20T09:08:10.168Z,13.43
2023-03-20T09:10:36.765Z,13.27
2023-03-20T09:13:15.531Z,13.68
2023-03-20T09:15:50.117Z,14.30
2023-03-20T09:18:17.284Z,12.90
2023-03-20T09:20:44.326Z,12.80
2023-03-20T09:23:11.352Z,12.13
2023-03-20T09:25:38.263Z,11.70
2023-03-20T09:28:04.968Z,12.27
2023-03-20T09:30:31.561Z,11.90
2023-03-20T09:32:58.240Z,11.95
2023-03-20T09:35:24.848Z,12.48
2023-03-20T09:37:51.475Z,11.93
2023-03-20T09:40:28.826Z,11.35
2023-03-20T09:42:58.396Z,11.68
2023-03-20T09:45:52.470Z,11.68
2023-03-20T09:48:41.662Z,11.27
2023-03-20T09:51:51.771Z,9.13
2023-03-20T09:54:26.008Z,8.57
2023-03-20T09:56:53.161Z,10.00
2023-03-20T09:59:20.895Z,9.02
2023-03-20T10:01:51.075Z,7.70
2023-03-20T10:04:17.986Z,8.30
2023-03-20T10:06:44.743Z,7.80
2023-03-20T10:09:18.768Z,8.50
2023-03-20T10:11:57.371Z,7.47
2023-03-20T10:14:38.328Z,8.30
2023-03-20T10:17:22.744Z,6.93
2023-03-20T10:19:53.891Z,6.85
2023-03-20T10:22:27.189Z,6.32
2023-03-20T10:25:11.445Z,6.53
2023-03-20T10:27:41.278Z,5.80
2023-03-20T10:30:45.054Z,6.30
2023-03-20T10:33:27.924Z,6.63
2023-03-20T10:36:07.973Z,7.03
2023-03-20T10:38:52.957Z,6.47
2023-03-20T10:41:21.826Z,6.38
2023-03-20T10:43:49.885Z,6.60
2023-03-20T10:46:25.775Z,6.85
2023-03-20T10:48:57.119Z,6.90
2023-03-20T10:51:34.347Z,6.28
2023-03-20T10:54:03.323Z,6.28
2023-03-20T10:56:50.093Z,6.90
2023-03-20T10:59:29.872Z,6.65
2023-03-20T11:01:56.619Z,6.25
2023-03-20T11:04:23.454Z,6.82
2023-03-20T11:07:01.542Z,6.53
2023-03-20T11:09:29.893Z,5.93
2023-03-20T11:11:57.924Z,5.35
2023-03-20T11:14:33.992Z,6.38
2023-03-20T11:17:02.127Z,6.22
2023-03-20T11:19:33.705Z,6.32
2023-03-20T11:22:03.770Z,6.10
2023-03-20T11:24:39.287Z,6.00
2023-03-20T11:27:26.886Z,6.32
2023-03-20T11:29:54.004Z,5.93
2023-03-20T11:32:23.516Z,6.72
2023-03-20T11:34:50.267Z,6.07
2023-03-20T11:37:26.083Z,6.40
2023-03-20T11:40:22.478Z,6.53
2023-03-20T11:43:06.011Z,7.53
2023-03-20T11:45:40.441Z,7.50
2023-03-20T11:48:14.883Z,7.40
2023-03-20T11:50:47.799Z,6.45
2023-03-20T11:53:25.331Z,6.82
2023-03-20T11:56:11.124Z,7.38
2023-03-20T11:58:47.256Z,7.22
2023-03-20T12:01:13.862Z,5.85
2023-03-20T12:03:55.882Z,5.95
2023-03-20T12:06:26.113Z,6.45
2023-03-20T12:09:02.137Z,5.65
2023-03-20T12:11:41.388Z,6.45
2023-03-20T12:14:15.177Z,6.40
2023-03-20T12:16:42.097Z,6.88
2023-03-20T12:19:18.933Z,6.43
2023-03-20T12:21:56.846Z,7.32
2023-03-20T12:24:31.934Z,7.35
2023-03-20T12:27:20.542Z,6.47
2023-03-20T12:29:54.745Z,7.60
2023-03-20T12:32:28.093Z,6.45
2023-03-20T12:34:57.620Z,7.53
2023-03-20T12:37:24.206Z,6.85
2023-03-20T12:39:54.809Z,7.22
2023-03-20T12:42:34.188Z,7.05
2023-03-20T12:45:12.172Z,7.20
2023-03-20T12:47:59.636Z,7.63
2023-03-20T12:50:32.320Z,7.13
2023-03-20T12:53:17.685Z,7.45
2023-03-20T12:55:52.571Z,7.72
2023-03-20T12:58:34.780Z,8.25
2023-03-20T13:01:08.878Z,7.50
2023-03-20T13:04:12.589Z,7.78
2023-03-20T13:06:45.540Z,7.63
2023-03-20T13:09:26.988Z,7.90
2023-03-20T13:12:02.573Z,8.10
2023-03-20T13:14:47.149Z,8.63
2023-03-20T13:17:37.497Z,8.20
2023-03-20T13:20:21.365Z,8.25
2023-03-20T13:22:55.803Z,8.05
2023-03-20T13:25:30.727Z,8.48
2023-03-20T13:28:06.566Z,8.43
2023-03-20T13:30:47.088Z,8.60
2023-03-20T13:33:26.696Z,8.05
2023-03-20T13:35:57.164Z,8.20
2023-03-20T13:38:24.932Z,8.75
2023-03-20T13:40:58.014Z,8.88
2023-03-20T13:43:34.595Z,7.75
2023-03-20T13:46:11.267Z,8.57
2023-03-20T13:48:40.233Z,9.10
2023-03-20T13:51:22.256Z,9.07
2023-03-20T13:53:55.624Z,9.25
2023-03-20T13:56:40.967Z,9.48
2023-03-20T13:59:45.429Z,9.20
2023-03-20T14:02:49.254Z,9.60
2023-03-20T14:05:23.080Z,9.02
2023-03-20T14:07:55.790Z,9.60
2023-03-20T14:10:22.282Z,10.60
2023-03-20T14:13:01.555Z,9.70
2023-03-20T14:15:32.793Z,10.13
2023-03-20T14:18:04.577Z,9.98
2023-03-20T14:20:37.657Z,9.98
2023-03-20T14:23:18.355Z,10.55
2023-03-20T14:25:46.594Z,10.00
2023-03-20T14:28:13.215Z,9.68
2023-03-20T14:30:44.749Z,10.05
2023-03-20T14:33:22.467Z,10.68
2023-03-20T14:36:22.214Z,10.27
2023-03-20T14:38:58.208Z,10.50
2023-03-20T14:41:48.963Z,11.63
2023-03-20T14:44:27.719Z,10.93
2023-03-20T14:47:20.903Z,11.63
2023-03-20T14:49:51.970Z,11.60
2023-03-20T14:52:42.437Z,11.80
2023-03-20T14:55:15.445Z,11.20
2023-03-20T14:57:55.554Z,11.18
2023-03-20T15:00:27.408Z,11.32
2023-03-20T15:03:14.455Z,11.65
2023-03-20T15:05:42.391Z,11.32
2023-03-20T15:08:24.112Z,11.52
2023-03-20T15:10:54.409Z,11.43
2023-03-20T15:13:21.616Z,11.45
2023-03-20T15:15:59.392Z,10.73
2023-03-20T15:18:27.544Z,11.15
2023-03-20T15:20:57.986Z,10.63
2023-03-20T15:23:26.325Z,10.73
2023-03-20T15:25:53.333Z,10.95
2023-03-20T15:28:23.342Z,10.20
2023-03-20T15:30:53.640Z,11.25
2023-03-20T15:33:27.137Z,10.80
2023-03-20T15:35:53.891Z,11.07
2023-03-20T15:38:21.084Z,11.90
2023-03-20T15:40:51.431Z,10.93
2023-03-20T15:43:24.737Z,10.77
2023-03-20T15:46:14.201Z,11.32
2023-03-20T15:48:48.490Z,10.57
2023-03-20T15:51:15.903Z,10.65
2023-03-20T15:53:45.626Z,10.40
2023-03-20T15:56:18.818Z,10.98
2023-03-20T15:58:48.050Z,10.63
2023-03-20T16:01:20.272Z,10.63
2023-03-20T16:03:47.686Z,10.88
2023-03-20T16:06:18.736Z,10.68
2023-03-20T16:08:47.023Z,10.90
2023-03-20T16:11:17.177Z,10.27
2023-03-20T16:13:48.348Z,10.40
2023-03-20T16:16:18.162Z,10.38
2023-03-20T16:18:48.081Z,10.43
2023-03-20T16:21:32.575Z,10.30
2023-03-20T16:24:00.061Z,11.02
2023-03-20T16:26:27.434Z,10.40
2023-03-20T16:28:56.751Z,9.80
2023-03-20T16:31:28.165Z,10.70
2023-03-20T16:33:59.319Z,10.68
2023-03-20T16:36:32.205Z,11.32
2023-03-20T16:39:10.345Z,10.20
2023-03-20T16:41:39.444Z,9.77
2023-03-20T16:44:17.704Z,9.18
2023-03-20T16:47:14.061Z,10.32
2023-03-20T16:49:44.816Z,10.88
2023-03-20T16:52:13.622Z,11.10
2023-03-20T16:54:40.733Z,10.20
2023-03-20T16:57:16.086Z,9.90
2023-03-20T16:59:43.042Z,11.05
2023-03-20T17:02:24.920Z,10.63
2023-03-20T17:05:02.133Z,10.50
2023-03-20T17:07:30.930Z,10.27
2023-03-20T17:09:59.532Z,10.80
2023-03-20T17:12:31.222Z,10.27
2023-03-20T17:14:58.195Z,10.68
2023-03-20T17:17:26.152Z,10.95
2023-03-20T17:19:53.440Z,11.23
2023-03-20T17:22:25.722Z,10.80
2023-03-20T17:24:53.143Z,10.80
2023-03-20T17:27:20.930Z,10.68
2023-03-20T17:29:52.173Z,10.23
2023-03-20T17:32:20.747Z,9.85
2023-03-20T17:34:47.738Z,9.80
2023-03-20T17:37:29.844Z,10.90
2023-03-20T17:39:56.900Z,11.15
2023-03-20T17:42:26.919Z,10.13
2023-03-20T17:44:53.727Z,10.77
2023-03-20T17:47:23.136Z,10.23
2023-03-20T17:49:52.028Z,11.27
2023-03-20T17:52:23.820Z,10.98
2023-03-20T17:54:50.710Z,9.85
2023-03-20T17:57:33.702Z,10.50
2023-03-20T18:00:02.208Z,9.90
2023-03-20T18:02:31.126Z,10.40
2023-03-20T18:04:57.905Z,10.10
2023-03-20T18:07:24.777Z,10.25
2023-03-20T18:09:51.724Z,10.95
2023-03-20T18:12:19.337Z,11.10
2023-03-20T18:14:46.455Z,10.60
2023-03-20T18:17:14.480Z,10.52
2023-03-20T18:19:41.900Z,10.73
2023-03-20T18:22:08.836Z,10.40
2023-03-20T18:24:36.157Z,9.85
2023-03-20T18:27:03.794Z,10.35
2023-03-20T18:29:30.522Z,10.45
2023-03-20T18:31:57.328Z,10.60
2023-03-20T18:34:24.265Z,10.23
2023-03-20T18:36:51.307Z,10.55
2023-03-20T18:39:19.078Z,9.63
2023-03-20T18:41:46.339Z,10.00
2023-03-20T18:44:13.219Z,9.40
2023-03-20T18:46:40.200Z,10.10
2023-03-20T18:49:07.252Z,10.00
2023-03-20T18:51:34.156Z,9.70
2023-03-20T18:54:01.056Z,10.13
2023-03-20T18:56:28.517Z,9.80
2023-03-20T18:58:55.477Z,10.00
2023-03-20T19:01:22.521Z,10.15
2023-03-20T19:03:49.452Z,10.10
2023-03-20T19:06:23.029Z,10.25
2023-03-20T19:08:50.896Z,10.35
2023-03-20T19:11:21.269Z,9.93
2023-03-20T19:13:54.412Z,10.05
2023-03-20T19:16:25.482Z,10.55
2023-03-20T19:18:53.801Z,10.63
2023-03-20T19:21:26.215Z,11.57
2023-03-20T19:23:54.149Z,11.18
2023-03-20T19:26:21.724Z,10.52
2023-03-20T19:28:49.178Z,10.55
2023-03-20T19:31:16.518Z,10.93
2023-03-20T19:33:43.679Z,11.55
2023-03-20T19:36:24.330Z,11.20
2023-03-20T19:38:51.698Z,11.13
2023-03-20T19:41:20.029Z,10.93
2023-03-20T19:43:53.180Z,10.63
2023-03-20T19:46:39.302Z,10.50
2023-03-20T19:49:19.276Z,10.25
2023-03-20T19:51:47.113Z,11.15
2023-03-20T19:54:13.921Z,10.32
2023-03-20T19:56:40.646Z,10.38
2023-03-20T19:59:08.532Z,10.52
2023-03-20T20:01:35.346Z,10.65
2023-03-20T20:04:02.090Z,10.52
2023-03-20T20:06:32.620Z,9.90
2023-03-20T20:09:01.314Z,10.45
2023-03-20T20:11:28.377Z,10.10
2023-03-20T20:14:14.465Z,9.77
2023-03-20T20:16:43.257Z,9.57
2023-03-20T20:19:10.420Z,9.50
2023-03-20T20:24:24.254Z,9.25
2023-03-20T20:26:56.823Z,9.60
2023-03-20T20:29:34.182Z,9.57
2023-03-20T20:32:01.261Z,9.88
2023-03-20T20:38:02.857Z,9.75
2023-03-20T20:40:05.591Z,8.93
2023-03-20T20:42:32.562Z,8.90
2023-03-20T20:44:59.491Z,8.98
2023-03-20T20:47:26.365Z,9.13
2023-03-20T20:49:53.904Z,8.55
2023-03-20T20:52:20.943Z,9.32
2023-03-20T20:54:48.282Z,8.80
2023-03-20T20:57:15.694Z,9.25
2023-03-20T20:59:42.694Z,8.70
2023-03-20T21:02:15.716Z,8.63
2023-03-20T21:04:43.723Z,9.07
2023-03-20T21:07:12.163Z,8.50
2023-03-20T21:09:39.590Z,8.38
2023-03-20T21:12:08.097Z,8.50
2023-03-20T21:14:35.140Z,9.52
2023-03-20T21:17:02.324Z,9.27
2023-03-20T21:19:30.052Z,9.07
2023-03-20T21:21:56.968Z,8.30
2023-03-20T21:24:33.781Z,8.82
2023-03-20T21:27:12.681Z,8.65
2023-03-20T21:29:40.155Z,9.07
2023-03-20T21:32:09.608Z,9.10
2023-03-20T21:34:40.456Z,8.38
2023-03-20T21:38:13.135Z,9.20
2023-03-20T21:39:57.272Z,8.60
2023-03-20T21:42:24.142Z,9.20
2023-03-20T21:48:24.720Z,9.80
2023-03-20T21:50:55.501Z,10.15
2023-03-20T21:54:07.465Z,8.82
2023-03-20T21:56:40.094Z,10.32
2023-03-20T21:59:24.056Z,9.77
2023-03-20T22:02:01.508Z,9.70
2023-03-20T22:07:48.512Z,9.45
2023-03-20T22:21:42.860Z,10.02
2023-03-20T22:32:58.388Z,10.50
2023-03-20T22:38:25.826Z,11.32
2023-03-20T22:46:32.403Z,10.98
2023-03-20T22:48:54.758Z,12.13
2023-03-20T22:51:28.685Z,10.75
2023-03-20T22:53:59.369Z,11.50
2023-03-20T22:56:26.253Z,11.52
2023-03-20T22:58:53.746Z,11.90
2023-03-20T23:01:20.478Z,10.68
2023-03-20T23:03:47.197Z,11.95
2023-03-20T23:06:21.277Z,12.40
2023-03-20T23:08:56.549Z,11.40
2023-03-20T23:11:25.492Z,11.77
2023-03-20T23:13:52.561Z,13.38
2023-03-20T23:16:19.586Z,12.80
2023-03-20T23:18:46.426Z,12.82
2023-03-20T23:21:13.344Z,13.13
2023-03-20T23:23:40.065Z,13.88
2023-03-20T23:26:09.770Z,13.70
2023-03-20T23:28:37.323Z,12.38
2023-03-20T23:31:11.242Z,12.85
2023-03-20T23:33:39.156Z,14.25
2023-03-20T23:36:18.678Z,13.82
2023-03-20T23:38:51.747Z,13.30
2023-03-20T23:41:19.044Z,12.10
2023-03-20T23:43:45.907Z,12.30
2023-03-20T23:46:12.659Z,12.27
2023-03-20T23:48:39.431Z,12.68
2023-03-20T23:51:06.436Z,12.75
2023-03-20T23:53:33.250Z,13.40
2023-03-20T23:56:00.028Z,12.70
2023-03-20T23:58:27.310Z,13.10
